Saigon Express — VRBT7 — position and weather

sailwx.info

Track history (hours):
 
Tides and Currents Weather Stations Pressure Air Temp Water Temp Dewpoint Dewpoint Depression Visibility Wind Speed Wind Dir Waves Ship Positions

Saigon Express

Last reported at 2014-Jul-16 03:13 UTC. Time now 2014-Jul-23 07:50 UTC.
Position N 30°18' E 032°25'.

Length 260 m; draft 12.2 m.

Type: Ship (hazmat cat B). MMSI: 477106800.

Date/timePositionNaut miles runAvg speedWind from/ knotsBaromVisibWave heightAir tempDewpointWater temp
2014-Jul-16 03:13N 30°18' E 032°25'68 7.0
2014-Jul-15 17:31N 31°26' E 032°20'0 0.0
2014-Jul-15 16:28N 31°26' E 032°20'0 0.0
2014-Jul-15 14:28N 31°26' E 032°20'0 0.0
2014-Jul-15 13:25N 31°26' E 032°20'0 0.0
2014-Jul-15 12:31N 31°26' E 032°20'0 0.0
2014-Jul-15 11:22N 31°26' E 032°20'0 0.0
2014-Jul-15 10:28N 31°26' E 032°20'0 0.0
2014-Jul-14 19:31N 31°26' E 032°20'  
2014-Jul-09 05:22N 35°54' W 007°27'1215.2
2014-Jul-09 04:34N 35°54' W 007°42'1515.3
2014-Jul-09 03:33N 35°54' W 008°01'1515.3
2014-Jul-09 02:33N 35°54' W 008°20'1515.1
2014-Jul-09 01:33N 35°54' W 008°39'1514.9
2014-Jul-09 00:33N 35°54' W 008°57'1514.8
2014-Jul-08 23:33N 35°56' W 009°15'1714.5
2014-Jul-08 22:22N 35°58' W 009°37'1214.4
2014-Jul-08 21:33N 35°59' W 009°51'1514.7
2014-Jul-08 20:34N 36°02' W 010°08'1614.8
2014-Jul-08 19:29N 36°06' W 010°27'1414.8
2014-Jul-08 18:33N 36°10' W 010°44'3315.0
2014-Jul-08 16:21N 36°20' W 011°23'30915.2
2014-Jul-07 20:05N 37°46' W 017°34'815.4
2014-Jul-07 19:32N 37°49' W 017°44'1515.5
2014-Jul-07 18:33N 37°53' W 018°03'1515.4
2014-Jul-07 17:33N 37°57' W 018°22'37615.6
2014-Jul-06 17:27N 39°28' W 026°09'9215.3
2014-Jul-06 11:25N 39°49' W 028°05'2815.0
2014-Jul-06 09:33N 39°55' W 028°41'1715.5
2014-Jul-06 08:29N 39°60' W 029°02'1515.5
2014-Jul-06 07:32N 40°03' W 029°20'1615.8
2014-Jul-06 06:33N 40°07' W 029°40'2216.0
2014-Jul-06 05:10N 40°10' W 030°09'1015.6
2014-Jul-06 04:30N 40°10' W 030°22'1415.2
2014-Jul-06 03:33N 40°10' W 030°41'  
Track history (hours):
 
Tides and Currents Weather Stations Pressure Air Temp Water Temp Dewpoint Dewpoint Depression Visibility Wind Speed Wind Dir Waves Ship Positions

Saigon Express

Last reported at 2014-Jul-16 03:13 UTC. Time now 2014-Jul-23 07:50 UTC.
Position N 30°18' E 032°25'.

Length 260 m; draft 12.2 m.

Type: Ship (hazmat cat B). MMSI: 477106800.

Date/timePositionNaut miles runAvg speedWind from/ knotsBaromVisibWave heightAir tempDewpointWater temp
2014-Jul-16 03:13N 30°18' E 032°25'68 7.0
2014-Jul-15 17:31N 31°26' E 032°20'0 0.0
2014-Jul-15 16:28N 31°26' E 032°20'0 0.0
2014-Jul-15 14:28N 31°26' E 032°20'0 0.0
2014-Jul-15 13:25N 31°26' E 032°20'0 0.0
2014-Jul-15 12:31N 31°26' E 032°20'0 0.0
2014-Jul-15 11:22N 31°26' E 032°20'0 0.0
2014-Jul-15 10:28N 31°26' E 032°20'0 0.0
2014-Jul-14 19:31N 31°26' E 032°20'  
2014-Jul-09 05:22N 35°54' W 007°27'1215.2
2014-Jul-09 04:34N 35°54' W 007°42'1515.3
2014-Jul-09 03:33N 35°54' W 008°01'1515.3
2014-Jul-09 02:33N 35°54' W 008°20'1515.1
2014-Jul-09 01:33N 35°54' W 008°39'1514.9
2014-Jul-09 00:33N 35°54' W 008°57'1514.8
2014-Jul-08 23:33N 35°56' W 009°15'1714.5
2014-Jul-08 22:22N 35°58' W 009°37'1214.4
2014-Jul-08 21:33N 35°59' W 009°51'1514.7
2014-Jul-08 20:34N 36°02' W 010°08'1614.8
2014-Jul-08 19:29N 36°06' W 010°27'1414.8
2014-Jul-08 18:33N 36°10' W 010°44'3315.0
2014-Jul-08 16:21N 36°20' W 011°23'30915.2
2014-Jul-07 20:05N 37°46' W 017°34'815.4
2014-Jul-07 19:32N 37°49' W 017°44'1515.5
2014-Jul-07 18:33N 37°53' W 018°03'1515.4
2014-Jul-07 17:33N 37°57' W 018°22'37615.6
2014-Jul-06 17:27N 39°28' W 026°09'9215.3
2014-Jul-06 11:25N 39°49' W 028°05'2815.0
2014-Jul-06 09:33N 39°55' W 028°41'1715.5
2014-Jul-06 08:29N 39°60' W 029°02'1515.5
2014-Jul-06 07:32N 40°03' W 029°20'1615.8
2014-Jul-06 06:33N 40°07' W 029°40'2216.0
2014-Jul-06 05:10N 40°10' W 030°09'1015.6
2014-Jul-06 04:30N 40°10' W 030°22'1415.2
2014-Jul-06 03:33N 40°10' W 030°41'  

Dump ship's entire track history